sensor_id;sensor_type;location;lat;lon;timestamp;temperature;humidity
7598;DHT22;3840;59.32098800;18.06423600;2022-12-29T00:02:20;2.30;99.90
7598;DHT22;3840;59.32098800;18.06423600;2022-12-29T00:04:45;2.30;99.90
7598;DHT22;3840;59.32098800;18.06423600;2022-12-29T00:07:11;2.30;99.90
7598;DHT22;3840;59.32098800;18.06423600;2022-12-29T00:09:37;2.30;99.90
7598;DHT22;3840;59.32098800;18.06423600;2022-12-29T00:12:03;2.30;99.90
7598;DHT22;3840;59.32098800;18.06423600;2022-12-29T00:14:29;2.30;99.90
7598;DHT22;3840;59.32098800;18.06423600;2022-12-29T00:17:14;2.30;99.90
7598;DHT22;3840;59.32098800;18.06423600;2022-12-29T00:19:40;2.30;99.90
7598;DHT22;3840;59.32098800;18.06423600;2022-12-29T00:22:24;2.30;99.90
7598;DHT22;3840;59.32098800;18.06423600;2022-12-29T00:25:10;2.30;99.90
7598;DHT22;3840;59.32098800;18.06423600;2022-12-29T00:27:55;2.30;99.90
7598;DHT22;3840;59.32098800;18.06423600;2022-12-29T00:30:39;2.30;99.90
7598;DHT22;3840;59.32098800;18.06423600;2022-12-29T00:33:27;2.30;99.90
7598;DHT22;3840;59.32098800;18.06423600;2022-12-29T00:36:18;2.30;99.90
7598;DHT22;3840;59.32098800;18.06423600;2022-12-29T00:38:49;2.30;99.90
7598;DHT22;3840;59.32098800;18.06423600;2022-12-29T00:41:35;2.30;99.90
7598;DHT22;3840;59.32098800;18.06423600;2022-12-29T00:44:19;2.30;99.90
7598;DHT22;3840;59.32098800;18.06423600;2022-12-29T00:46:45;2.20;99.90
7598;DHT22;3840;59.32098800;18.06423600;2022-12-29T00:49:13;2.30;99.90
7598;DHT22;3840;59.32098800;18.06423600;2022-12-29T00:52:06;2.20;99.90
7598;DHT22;3840;59.32098800;18.06423600;2022-12-29T00:54:35;2.20;99.90
7598;DHT22;3840;59.32098800;18.06423600;2022-12-29T00:57:02;2.20;99.90
7598;DHT22;3840;59.32098800;18.06423600;2022-12-29T00:59:28;2.20;99.90
7598;DHT22;3840;59.32098800;18.06423600;2022-12-29T01:01:54;2.10;99.90
7598;DHT22;3840;59.32098800;18.06423600;2022-12-29T01:04:25;2.10;99.90
7598;DHT22;3840;59.32098800;18.06423600;2022-12-29T01:06:52;2.10;99.90
7598;DHT22;3840;59.32098800;18.06423600;2022-12-29T01:09:18;2.20;99.90
7598;DHT22;3840;59.32098800;18.06423600;2022-12-29T01:12:03;2.10;99.90
7598;DHT22;3840;59.32098800;18.06423600;2022-12-29T01:14:29;2.10;99.90
7598;DHT22;3840;59.32098800;18.06423600;2022-12-29T01:16:55;2.20;99.90
7598;DHT22;3840;59.32098800;18.06423600;2022-12-29T01:19:21;2.30;99.90
7598;DHT22;3840;59.32098800;18.06423600;2022-12-29T01:21:47;2.20;99.90
7598;DHT22;3840;59.32098800;18.06423600;2022-12-29T01:24:14;2.20;99.90
7598;DHT22;3840;59.32098800;18.06423600;2022-12-29T01:26:40;2.10;99.90
7598;DHT22;3840;59.32098800;18.06423600;2022-12-29T01:29:07;2.10;99.90
7598;DHT22;3840;59.32098800;18.06423600;2022-12-29T01:31:33;2.10;99.90
7598;DHT22;3840;59.32098800;18.06423600;2022-12-29T01:33:59;2.40;99.90
7598;DHT22;3840;59.32098800;18.06423600;2022-12-29T01:36:25;2.20;99.90
7598;DHT22;3840;59.32098800;18.06423600;2022-12-29T01:38:51;2.20;99.90
7598;DHT22;3840;59.32098800;18.06423600;2022-12-29T01:41:16;2.20;99.90
7598;DHT22;3840;59.32098800;18.06423600;2022-12-29T01:46:39;2.20;99.90
7598;DHT22;3840;59.32098800;18.06423600;2022-12-29T01:52:04;2.20;99.90
7598;DHT22;3840;59.32098800;18.06423600;2022-12-29T01:54:37;2.20;99.90
7598;DHT22;3840;59.32098800;18.06423600;2022-12-29T01:57:08;2.30;99.90
7598;DHT22;3840;59.32098800;18.06423600;2022-12-29T01:59:40;2.40;99.90
7598;DHT22;3840;59.32098800;18.06423600;2022-12-29T02:02:07;2.30;99.90
7598;DHT22;3840;59.32098800;18.06423600;2022-12-29T02:04:33;2.20;99.90
7598;DHT22;3840;59.32098800;18.06423600;2022-12-29T02:07:03;2.30;99.90
7598;DHT22;3840;59.32098800;18.06423600;2022-12-29T02:09:30;2.20;99.90
7598;DHT22;3840;59.32098800;18.06423600;2022-12-29T02:11:58;2.30;99.90
7598;DHT22;3840;59.32098800;18.06423600;2022-12-29T02:14:24;2.30;99.90
7598;DHT22;3840;59.32098800;18.06423600;2022-12-29T02:22:39;2.20;99.90
7598;DHT22;3840;59.32098800;18.06423600;2022-12-29T02:36:49;2.20;99.90
7598;DHT22;3840;59.32098800;18.06423600;2022-12-29T02:39:35;2.20;99.90
7598;DHT22;3840;59.32098800;18.06423600;2022-12-29T02:44:59;2.30;99.90
7598;DHT22;3840;59.32098800;18.06423600;2022-12-29T02:47:30;2.30;99.90
7598;DHT22;3840;59.32098800;18.06423600;2022-12-29T02:50:06;2.30;99.90
7598;DHT22;3840;59.32098800;18.06423600;2022-12-29T02:52:48;2.40;99.90
7598;DHT22;3840;59.32098800;18.06423600;2022-12-29T02:55:16;2.40;99.90
7598;DHT22;3840;59.32098800;18.06423600;2022-12-29T02:57:41;2.50;99.90
7598;DHT22;3840;59.32098800;18.06423600;2022-12-29T03:00:08;2.50;99.90
7598;DHT22;3840;59.32098800;18.06423600;2022-12-29T03:19:15;2.70;99.90
7598;DHT22;3840;59.32098800;18.06423600;2022-12-29T03:24:46;2.80;99.90
7598;DHT22;3840;59.32098800;18.06423600;2022-12-29T03:27:16;2.80;99.90
7598;DHT22;3840;59.32098800;18.06423600;2022-12-29T03:29:48;2.80;99.90
7598;DHT22;3840;59.32098800;18.06423600;2022-12-29T03:32:20;2.80;99.90
7598;DHT22;3840;59.32098800;18.06423600;2022-12-29T03:34:48;2.90;99.90
7598;DHT22;3840;59.32098800;18.06423600;2022-12-29T03:37:17;2.90;99.90
7598;DHT22;3840;59.32098800;18.06423600;2022-12-29T03:39:44;2.80;99.90
7598;DHT22;3840;59.32098800;18.06423600;2022-12-29T03:42:14;2.90;99.90
7598;DHT22;3840;59.32098800;18.06423600;2022-12-29T03:44:42;2.90;99.90
7598;DHT22;3840;59.32098800;18.06423600;2022-12-29T03:47:11;2.90;99.90
7598;DHT22;3840;59.32098800;18.06423600;2022-12-29T03:49:37;2.90;99.90
7598;DHT22;3840;59.32098800;18.06423600;2022-12-29T03:52:02;2.90;99.90
7598;DHT22;3840;59.32098800;18.06423600;2022-12-29T03:54:29;3.00;99.90
7598;DHT22;3840;59.32098800;18.06423600;2022-12-29T03:56:55;3.00;99.90
7598;DHT22;3840;59.32098800;18.06423600;2022-12-29T03:59:21;3.00;99.90
7598;DHT22;3840;59.32098800;18.06423600;2022-12-29T04:01:46;3.00;99.90
7598;DHT22;3840;59.32098800;18.06423600;2022-12-29T04:04:12;3.00;99.90
7598;DHT22;3840;59.32098800;18.06423600;2022-12-29T04:06:38;3.00;99.90
7598;DHT22;3840;59.32098800;18.06423600;2022-12-29T04:09:05;3.00;99.90
7598;DHT22;3840;59.32098800;18.06423600;2022-12-29T04:11:30;3.00;99.90
7598;DHT22;3840;59.32098800;18.06423600;2022-12-29T04:13:56;3.10;99.90
7598;DHT22;3840;59.32098800;18.06423600;2022-12-29T04:16:21;3.10;99.90
7598;DHT22;3840;59.32098800;18.06423600;2022-12-29T04:18:47;3.10;99.90
7598;DHT22;3840;59.32098800;18.06423600;2022-12-29T04:21:13;3.10;99.90
7598;DHT22;3840;59.32098800;18.06423600;2022-12-29T04:23:39;3.10;99.90
7598;DHT22;3840;59.32098800;18.06423600;2022-12-29T04:26:06;3.10;99.90
7598;DHT22;3840;59.32098800;18.06423600;2022-12-29T04:28:33;3.10;99.90
7598;DHT22;3840;59.32098800;18.06423600;2022-12-29T04:30:59;3.10;99.90
7598;DHT22;3840;59.32098800;18.06423600;2022-12-29T04:33:25;3.20;99.90
7598;DHT22;3840;59.32098800;18.06423600;2022-12-29T04:35:51;3.20;99.90
7598;DHT22;3840;59.32098800;18.06423600;2022-12-29T04:38:20;3.20;99.90
7598;DHT22;3840;59.32098800;18.06423600;2022-12-29T04:40:46;3.30;99.90
7598;DHT22;3840;59.32098800;18.06423600;2022-12-29T04:43:12;3.30;99.90
7598;DHT22;3840;59.32098800;18.06423600;2022-12-29T04:45:42;3.30;99.90
7598;DHT22;3840;59.32098800;18.06423600;2022-12-29T04:48:08;3.30;99.90
7598;DHT22;3840;59.32098800;18.06423600;2022-12-29T04:50:34;3.40;99.90
7598;DHT22;3840;59.32098800;18.06423600;2022-12-29T04:53:00;3.40;99.90
7598;DHT22;3840;59.32098800;18.06423600;2022-12-29T04:55:26;3.50;99.90
7598;DHT22;3840;59.32098800;18.06423600;2022-12-29T04:57:52;3.40;99.90
7598;DHT22;3840;59.32098800;18.06423600;2022-12-29T05:00:18;3.40;99.90
7598;DHT22;3840;59.32098800;18.06423600;2022-12-29T05:02:43;3.50;99.90
7598;DHT22;3840;59.32098800;18.06423600;2022-12-29T05:05:09;3.50;99.90
7598;DHT22;3840;59.32098800;18.06423600;2022-12-29T05:07:35;3.50;99.90
7598;DHT22;3840;59.32098800;18.06423600;2022-12-29T05:10:01;3.50;99.90
7598;DHT22;3840;59.32098800;18.06423600;2022-12-29T05:12:32;3.50;99.90
7598;DHT22;3840;59.32098800;18.06423600;2022-12-29T05:14:57;3.50;99.90
7598;DHT22;3840;59.32098800;18.06423600;2022-12-29T05:17:23;3.50;99.90
7598;DHT22;3840;59.32098800;18.06423600;2022-12-29T05:19:49;3.60;99.90
7598;DHT22;3840;59.32098800;18.06423600;2022-12-29T05:22:14;3.60;99.90
7598;DHT22;3840;59.32098800;18.06423600;2022-12-29T05:24:40;3.50;99.90
7598;DHT22;3840;59.32098800;18.06423600;2022-12-29T05:27:06;3.60;99.90
7598;DHT22;3840;59.32098800;18.06423600;2022-12-29T05:29:31;3.60;99.90
7598;DHT22;3840;59.32098800;18.06423600;2022-12-29T05:31:57;3.60;99.90
7598;DHT22;3840;59.32098800;18.06423600;2022-12-29T05:34:23;3.60;99.90
7598;DHT22;3840;59.32098800;18.06423600;2022-12-29T05:36:48;3.70;99.90
7598;DHT22;3840;59.32098800;18.06423600;2022-12-29T05:39:14;3.70;99.90
7598;DHT22;3840;59.32098800;18.06423600;2022-12-29T05:41:40;3.70;99.90
7598;DHT22;3840;59.32098800;18.06423600;2022-12-29T05:44:05;3.70;99.90
7598;DHT22;3840;59.32098800;18.06423600;2022-12-29T05:46:31;3.70;99.90
7598;DHT22;3840;59.32098800;18.06423600;2022-12-29T05:48:57;3.70;99.90
7598;DHT22;3840;59.32098800;18.06423600;2022-12-29T05:51:23;3.70;99.90
7598;DHT22;3840;59.32098800;18.06423600;2022-12-29T05:53:49;3.70;99.90
7598;DHT22;3840;59.32098800;18.06423600;2022-12-29T05:56:15;3.70;99.90
7598;DHT22;3840;59.32098800;18.06423600;2022-12-29T05:58:40;3.70;99.90
7598;DHT22;3840;59.32098800;18.06423600;2022-12-29T06:01:06;3.80;99.90
7598;DHT22;3840;59.32098800;18.06423600;2022-12-29T06:03:32;3.70;99.90
7598;DHT22;3840;59.32098800;18.06423600;2022-12-29T06:05:58;3.80;99.90
7598;DHT22;3840;59.32098800;18.06423600;2022-12-29T06:08:23;3.50;99.90
7598;DHT22;3840;59.32098800;18.06423600;2022-12-29T06:10:50;3.80;99.90
7598;DHT22;3840;59.32098800;18.06423600;2022-12-29T06:13:15;3.80;99.90
7598;DHT22;3840;59.32098800;18.06423600;2022-12-29T06:15:42;3.90;99.90
7598;DHT22;3840;59.32098800;18.06423600;2022-12-29T06:18:08;3.80;99.90
7598;DHT22;3840;59.32098800;18.06423600;2022-12-29T06:20:34;3.90;99.90
7598;DHT22;3840;59.32098800;18.06423600;2022-12-29T06:23:00;3.90;99.90
7598;DHT22;3840;59.32098800;18.06423600;2022-12-29T06:25:25;3.90;99.90
7598;DHT22;3840;59.32098800;18.06423600;2022-12-29T06:27:51;3.90;99.90
7598;DHT22;3840;59.32098800;18.06423600;2022-12-29T06:30:17;3.90;99.90
7598;DHT22;3840;59.32098800;18.06423600;2022-12-29T06:32:43;3.90;99.90
7598;DHT22;3840;59.32098800;18.06423600;2022-12-29T06:35:09;4.00;99.90
7598;DHT22;3840;59.32098800;18.06423600;2022-12-29T06:37:35;4.00;99.90
7598;DHT22;3840;59.32098800;18.06423600;2022-12-29T06:40:01;4.00;99.90
7598;DHT22;3840;59.32098800;18.06423600;2022-12-29T06:42:27;4.00;99.90
7598;DHT22;3840;59.32098800;18.06423600;2022-12-29T06:44:53;4.00;99.90
7598;DHT22;3840;59.32098800;18.06423600;2022-12-29T06:47:18;4.00;99.90
7598;DHT22;3840;59.32098800;18.06423600;2022-12-29T06:49:44;4.00;99.90
7598;DHT22;3840;59.32098800;18.06423600;2022-12-29T06:52:10;4.00;99.90
7598;DHT22;3840;59.32098800;18.06423600;2022-12-29T06:54:36;4.10;99.90
7598;DHT22;3840;59.32098800;18.06423600;2022-12-29T06:57:01;4.00;99.90
7598;DHT22;3840;59.32098800;18.06423600;2022-12-29T06:59:27;4.00;99.90
7598;DHT22;3840;59.32098800;18.06423600;2022-12-29T07:01:53;4.10;99.90
7598;DHT22;3840;59.32098800;18.06423600;2022-12-29T07:04:19;4.10;99.90
7598;DHT22;3840;59.32098800;18.06423600;2022-12-29T07:06:45;4.10;99.90
7598;DHT22;3840;59.32098800;18.06423600;2022-12-29T07:09:11;4.10;99.90
7598;DHT22;3840;59.32098800;18.06423600;2022-12-29T07:11:37;4.10;99.90
7598;DHT22;3840;59.32098800;18.06423600;2022-12-29T07:14:03;4.10;99.90
7598;DHT22;3840;59.32098800;18.06423600;2022-12-29T07:16:29;4.10;99.90
7598;DHT22;3840;59.32098800;18.06423600;2022-12-29T07:18:56;4.10;99.90
7598;DHT22;3840;59.32098800;18.06423600;2022-12-29T07:21:22;4.10;99.90
7598;DHT22;3840;59.32098800;18.06423600;2022-12-29T07:23:48;4.20;99.90
7598;DHT22;3840;59.32098800;18.06423600;2022-12-29T07:26:15;4.20;99.90
7598;DHT22;3840;59.32098800;18.06423600;2022-12-29T07:28:43;4.20;99.90
7598;DHT22;3840;59.32098800;18.06423600;2022-12-29T07:31:18;4.20;99.90
7598;DHT22;3840;59.32098800;18.06423600;2022-12-29T07:33:45;4.20;99.90
7598;DHT22;3840;59.32098800;18.06423600;2022-12-29T07:36:12;4.20;99.90
7598;DHT22;3840;59.32098800;18.06423600;2022-12-29T07:38:38;4.20;99.90
7598;DHT22;3840;59.32098800;18.06423600;2022-12-29T07:41:04;4.20;99.90
7598;DHT22;3840;59.32098800;18.06423600;2022-12-29T07:43:30;4.20;99.90
7598;DHT22;3840;59.32098800;18.06423600;2022-12-29T07:45:55;4.20;99.90
7598;DHT22;3840;59.32098800;18.06423600;2022-12-29T07:48:21;4.10;99.90
7598;DHT22;3840;59.32098800;18.06423600;2022-12-29T07:50:47;4.20;99.90
7598;DHT22;3840;59.32098800;18.06423600;2022-12-29T07:53:13;4.20;99.90
7598;DHT22;3840;59.32098800;18.06423600;2022-12-29T07:55:39;4.20;99.90
7598;DHT22;3840;59.32098800;18.06423600;2022-12-29T07:58:04;4.20;99.90
7598;DHT22;3840;59.32098800;18.06423600;2022-12-29T08:00:30;4.20;99.90
7598;DHT22;3840;59.32098800;18.06423600;2022-12-29T08:02:56;4.20;99.90
7598;DHT22;3840;59.32098800;18.06423600;2022-12-29T08:05:21;4.20;99.90
7598;DHT22;3840;59.32098800;18.06423600;2022-12-29T08:07:47;4.20;99.90
7598;DHT22;3840;59.32098800;18.06423600;2022-12-29T08:10:14;4.20;99.90
7598;DHT22;3840;59.32098800;18.06423600;2022-12-29T08:12:41;4.20;99.90
7598;DHT22;3840;59.32098800;18.06423600;2022-12-29T08:15:09;4.20;99.90
7598;DHT22;3840;59.32098800;18.06423600;2022-12-29T08:17:35;4.20;99.90
7598;DHT22;3840;59.32098800;18.06423600;2022-12-29T08:20:01;4.20;99.90
7598;DHT22;3840;59.32098800;18.06423600;2022-12-29T08:22:27;4.20;99.90
7598;DHT22;3840;59.32098800;18.06423600;2022-12-29T08:24:53;4.20;99.90
7598;DHT22;3840;59.32098800;18.06423600;2022-12-29T08:27:18;4.20;99.90
7598;DHT22;3840;59.32098800;18.06423600;2022-12-29T08:29:44;4.30;99.90
7598;DHT22;3840;59.32098800;18.06423600;2022-12-29T08:32:11;4.30;99.90
7598;DHT22;3840;59.32098800;18.06423600;2022-12-29T08:34:36;4.30;99.90
7598;DHT22;3840;59.32098800;18.06423600;2022-12-29T08:37:02;4.30;99.90
7598;DHT22;3840;59.32098800;18.06423600;2022-12-29T08:39:28;4.30;99.90
7598;DHT22;3840;59.32098800;18.06423600;2022-12-29T08:41:54;4.30;99.90
7598;DHT22;3840;59.32098800;18.06423600;2022-12-29T08:44:20;4.30;99.90
7598;DHT22;3840;59.32098800;18.06423600;2022-12-29T08:46:46;4.30;99.90
7598;DHT22;3840;59.32098800;18.06423600;2022-12-29T08:49:11;4.30;99.90
7598;DHT22;3840;59.32098800;18.06423600;2022-12-29T08:51:37;4.30;99.90
7598;DHT22;3840;59.32098800;18.06423600;2022-12-29T08:54:03;4.30;99.90
7598;DHT22;3840;59.32098800;18.06423600;2022-12-29T08:56:29;4.30;99.90
7598;DHT22;3840;59.32098800;18.06423600;2022-12-29T08:58:55;4.30;99.90
7598;DHT22;3840;59.32098800;18.06423600;2022-12-29T09:01:21;4.40;99.90
7598;DHT22;3840;59.32098800;18.06423600;2022-12-29T09:03:47;4.40;99.90
7598;DHT22;3840;59.32098800;18.06423600;2022-12-29T09:06:14;4.40;99.90
7598;DHT22;3840;59.32098800;18.06423600;2022-12-29T09:08:40;4.40;99.90
7598;DHT22;3840;59.32098800;18.06423600;2022-12-29T09:11:08;4.40;99.90
7598;DHT22;3840;59.32098800;18.06423600;2022-12-29T09:13:35;4.40;99.90
7598;DHT22;3840;59.32098800;18.06423600;2022-12-29T09:16:00;4.50;99.90
7598;DHT22;3840;59.32098800;18.06423600;2022-12-29T09:18:26;4.50;99.90
7598;DHT22;3840;59.32098800;18.06423600;2022-12-29T09:20:59;4.50;99.90
7598;DHT22;3840;59.32098800;18.06423600;2022-12-29T09:23:25;4.50;99.90
7598;DHT22;3840;59.32098800;18.06423600;2022-12-29T09:25:52;4.50;99.90
7598;DHT22;3840;59.32098800;18.06423600;2022-12-29T09:28:18;4.60;99.90
7598;DHT22;3840;59.32098800;18.06423600;2022-12-29T09:30:43;4.60;99.90
7598;DHT22;3840;59.32098800;18.06423600;2022-12-29T09:33:10;4.60;99.90
7598;DHT22;3840;59.32098800;18.06423600;2022-12-29T09:35:36;4.60;99.90
7598;DHT22;3840;59.32098800;18.06423600;2022-12-29T09:38:02;4.60;99.90
7598;DHT22;3840;59.32098800;18.06423600;2022-12-29T09:40:32;4.60;99.90
7598;DHT22;3840;59.32098800;18.06423600;2022-12-29T09:43:23;4.70;99.90
7598;DHT22;3840;59.32098800;18.06423600;2022-12-29T09:46:27;4.70;99.90
7598;DHT22;3840;59.32098800;18.06423600;2022-12-29T09:49:18;4.70;99.90
7598;DHT22;3840;59.32098800;18.06423600;2022-12-29T09:51:49;4.70;99.90
7598;DHT22;3840;59.32098800;18.06423600;2022-12-29T09:54:37;4.80;99.90
7598;DHT22;3840;59.32098800;18.06423600;2022-12-29T09:57:08;4.80;99.90
7598;DHT22;3840;59.32098800;18.06423600;2022-12-29T09:59:40;4.80;99.90
7598;DHT22;3840;59.32098800;18.06423600;2022-12-29T10:05:00;4.90;99.90
7598;DHT22;3840;59.32098800;18.06423600;2022-12-29T10:07:40;4.90;99.90
7598;DHT22;3840;59.32098800;18.06423600;2022-12-29T10:18:03;5.00;99.90
7598;DHT22;3840;59.32098800;18.06423600;2022-12-29T10:20:38;5.00;99.90
7598;DHT22;3840;59.32098800;18.06423600;2022-12-29T10:25:42;5.00;99.90
7598;DHT22;3840;59.32098800;18.06423600;2022-12-29T10:28:23;5.00;99.90
7598;DHT22;3840;59.32098800;18.06423600;2022-12-29T10:30:50;5.00;99.90
7598;DHT22;3840;59.32098800;18.06423600;2022-12-29T10:33:34;5.00;99.90
7598;DHT22;3840;59.32098800;18.06423600;2022-12-29T10:36:15;5.00;99.90
7598;DHT22;3840;59.32098800;18.06423600;2022-12-29T10:38:51;5.00;99.90
7598;DHT22;3840;59.32098800;18.06423600;2022-12-29T10:41:28;5.10;99.90
7598;DHT22;3840;59.32098800;18.06423600;2022-12-29T10:44:00;5.00;99.90
7598;DHT22;3840;59.32098800;18.06423600;2022-12-29T10:46:32;5.10;99.90
7598;DHT22;3840;59.32098800;18.06423600;2022-12-29T10:48:59;5.10;99.90
7598;DHT22;3840;59.32098800;18.06423600;2022-12-29T10:51:32;5.10;99.90
7598;DHT22;3840;59.32098800;18.06423600;2022-12-29T10:54:13;5.10;99.90
7598;DHT22;3840;59.32098800;18.06423600;2022-12-29T10:56:43;5.20;99.90
7598;DHT22;3840;59.32098800;18.06423600;2022-12-29T10:59:19;5.10;99.90
7598;DHT22;3840;59.32098800;18.06423600;2022-12-29T11:07:21;5.20;99.90
7598;DHT22;3840;59.32098800;18.06423600;2022-12-29T11:09:47;5.20;99.90
7598;DHT22;3840;59.32098800;18.06423600;2022-12-29T11:12:25;5.20;99.90
7598;DHT22;3840;59.32098800;18.06423600;2022-12-29T11:15:14;5.20;99.90
7598;DHT22;3840;59.32098800;18.06423600;2022-12-29T11:17:49;5.30;99.90
7598;DHT22;3840;59.32098800;18.06423600;2022-12-29T11:20:31;5.30;99.90
7598;DHT22;3840;59.32098800;18.06423600;2022-12-29T11:23:00;5.30;99.90
7598;DHT22;3840;59.32098800;18.06423600;2022-12-29T11:25:27;5.30;99.90
7598;DHT22;3840;59.32098800;18.06423600;2022-12-29T11:27:57;5.30;99.90
7598;DHT22;3840;59.32098800;18.06423600;2022-12-29T11:30:25;5.30;99.90
7598;DHT22;3840;59.32098800;18.06423600;2022-12-29T11:32:53;5.30;99.90
7598;DHT22;3840;59.32098800;18.06423600;2022-12-29T11:35:36;5.30;99.90
7598;DHT22;3840;59.32098800;18.06423600;2022-12-29T11:38:04;5.30;99.90
7598;DHT22;3840;59.32098800;18.06423600;2022-12-29T11:40:31;5.40;99.90
7598;DHT22;3840;59.32098800;18.06423600;2022-12-29T11:43:03;5.40;99.90
7598;DHT22;3840;59.32098800;18.06423600;2022-12-29T11:45:36;5.40;99.90
7598;DHT22;3840;59.32098800;18.06423600;2022-12-29T11:48:18;5.40;99.90
7598;DHT22;3840;59.32098800;18.06423600;2022-12-29T11:50:54;5.40;99.90
7598;DHT22;3840;59.32098800;18.06423600;2022-12-29T11:53:24;5.40;99.90
7598;DHT22;3840;59.32098800;18.06423600;2022-12-29T11:56:00;5.40;99.90
7598;DHT22;3840;59.32098800;18.06423600;2022-12-29T11:58:32;5.40;99.90
7598;DHT22;3840;59.32098800;18.06423600;2022-12-29T12:01:34;5.40;99.90
7598;DHT22;3840;59.32098800;18.06423600;2022-12-29T12:04:08;5.40;99.90
7598;DHT22;3840;59.32098800;18.06423600;2022-12-29T12:06:45;5.40;99.90
7598;DHT22;3840;59.32098800;18.06423600;2022-12-29T12:09:23;5.40;99.90
7598;DHT22;3840;59.32098800;18.06423600;2022-12-29T12:11:52;5.40;99.90
7598;DHT22;3840;59.32098800;18.06423600;2022-12-29T12:14:30;5.40;99.90
7598;DHT22;3840;59.32098800;18.06423600;2022-12-29T12:17:06;5.40;99.90
7598;DHT22;3840;59.32098800;18.06423600;2022-12-29T12:19:43;5.40;99.90
7598;DHT22;3840;59.32098800;18.06423600;2022-12-29T12:24:55;5.40;99.90
7598;DHT22;3840;59.32098800;18.06423600;2022-12-29T12:27:39;5.40;99.90
7598;DHT22;3840;59.32098800;18.06423600;2022-12-29T12:30:19;5.40;99.90
7598;DHT22;3840;59.32098800;18.06423600;2022-12-29T12:35:37;5.40;99.90
7598;DHT22;3840;59.32098800;18.06423600;2022-12-29T12:41:12;5.50;99.90
7598;DHT22;3840;59.32098800;18.06423600;2022-12-29T12:44:16;5.50;99.90
7598;DHT22;3840;59.32098800;18.06423600;2022-12-29T13:04:04;5.20;99.90
7598;DHT22;3840;59.32098800;18.06423600;2022-12-29T13:06:51;5.50;99.90
7598;DHT22;3840;59.32098800;18.06423600;2022-12-29T13:14:48;5.50;99.90
7598;DHT22;3840;59.32098800;18.06423600;2022-12-29T13:17:36;5.60;99.90
7598;DHT22;3840;59.32098800;18.06423600;2022-12-29T13:25:40;5.50;99.90
7598;DHT22;3840;59.32098800;18.06423600;2022-12-29T13:36:52;5.60;99.90
7598;DHT22;3840;59.32098800;18.06423600;2022-12-29T13:39:24;5.50;99.90
7598;DHT22;3840;59.32098800;18.06423600;2022-12-29T13:41:52;5.60;99.90
7598;DHT22;3840;59.32098800;18.06423600;2022-12-29T13:44:46;5.60;99.90
7598;DHT22;3840;59.32098800;18.06423600;2022-12-29T13:47:35;5.60;99.90
7598;DHT22;3840;59.32098800;18.06423600;2022-12-29T13:50:05;5.60;99.90
7598;DHT22;3840;59.32098800;18.06423600;2022-12-29T13:58:03;5.60;99.90
7598;DHT22;3840;59.32098800;18.06423600;2022-12-29T14:01:30;5.60;99.90
7598;DHT22;3840;59.32098800;18.06423600;2022-12-29T14:06:23;5.60;99.90
7598;DHT22;3840;59.32098800;18.06423600;2022-12-29T14:08:56;5.60;99.90
7598;DHT22;3840;59.32098800;18.06423600;2022-12-29T14:11:33;5.60;99.90
7598;DHT22;3840;59.32098800;18.06423600;2022-12-29T14:14:20;5.60;99.90
7598;DHT22;3840;59.32098800;18.06423600;2022-12-29T14:16:47;5.60;99.90
7598;DHT22;3840;59.32098800;18.06423600;2022-12-29T14:19:21;5.60;99.90
7598;DHT22;3840;59.32098800;18.06423600;2022-12-29T14:22:15;5.60;99.90
7598;DHT22;3840;59.32098800;18.06423600;2022-12-29T14:24:47;5.60;99.90
7598;DHT22;3840;59.32098800;18.06423600;2022-12-29T14:34:56;5.60;99.90
7598;DHT22;3840;59.32098800;18.06423600;2022-12-29T14:37:31;5.60;99.90
7598;DHT22;3840;59.32098800;18.06423600;2022-12-29T14:40:22;5.60;99.90
7598;DHT22;3840;59.32098800;18.06423600;2022-12-29T14:42:54;5.70;99.90
7598;DHT22;3840;59.32098800;18.06423600;2022-12-29T14:47:48;5.70;99.90
7598;DHT22;3840;59.32098800;18.06423600;2022-12-29T14:55:45;5.70;99.90
7598;DHT22;3840;59.32098800;18.06423600;2022-12-29T14:58:21;5.70;99.90
7598;DHT22;3840;59.32098800;18.06423600;2022-12-29T15:00:48;5.70;99.90
7598;DHT22;3840;59.32098800;18.06423600;2022-12-29T15:03:32;5.70;99.90
7598;DHT22;3840;59.32098800;18.06423600;2022-12-29T15:06:04;5.70;99.90
7598;DHT22;3840;59.32098800;18.06423600;2022-12-29T15:11:21;5.80;99.90
7598;DHT22;3840;59.32098800;18.06423600;2022-12-29T15:13:48;5.70;99.90
7598;DHT22;3840;59.32098800;18.06423600;2022-12-29T15:16:25;5.80;99.90
7598;DHT22;3840;59.32098800;18.06423600;2022-12-29T15:18:52;5.80;99.90
7598;DHT22;3840;59.32098800;18.06423600;2022-12-29T15:21:30;5.80;99.90
7598;DHT22;3840;59.32098800;18.06423600;2022-12-29T15:23:56;5.80;99.90
7598;DHT22;3840;59.32098800;18.06423600;2022-12-29T15:26:22;5.80;99.90
7598;DHT22;3840;59.32098800;18.06423600;2022-12-29T15:28:51;5.80;99.90
7598;DHT22;3840;59.32098800;18.06423600;2022-12-29T15:31:22;5.90;99.90
7598;DHT22;3840;59.32098800;18.06423600;2022-12-29T15:33:53;5.90;99.90
7598;DHT22;3840;59.32098800;18.06423600;2022-12-29T15:36:25;5.90;99.90
7598;DHT22;3840;59.32098800;18.06423600;2022-12-29T15:38:52;5.90;99.90
7598;DHT22;3840;59.32098800;18.06423600;2022-12-29T15:41:40;5.90;99.90
7598;DHT22;3840;59.32098800;18.06423600;2022-12-29T15:44:38;5.90;99.90
7598;DHT22;3840;59.32098800;18.06423600;2022-12-29T15:47:08;5.90;99.90
7598;DHT22;3840;59.32098800;18.06423600;2022-12-29T15:49:36;5.90;99.90
7598;DHT22;3840;59.32098800;18.06423600;2022-12-29T15:52:07;5.90;99.90
7598;DHT22;3840;59.32098800;18.06423600;2022-12-29T15:54:33;6.00;99.90
7598;DHT22;3840;59.32098800;18.06423600;2022-12-29T15:56:58;5.90;99.90
7598;DHT22;3840;59.32098800;18.06423600;2022-12-29T15:59:29;6.00;99.90
7598;DHT22;3840;59.32098800;18.06423600;2022-12-29T16:01:57;6.00;99.90
7598;DHT22;3840;59.32098800;18.06423600;2022-12-29T16:04:27;6.00;99.90
7598;DHT22;3840;59.32098800;18.06423600;2022-12-29T16:07:01;6.00;99.90
7598;DHT22;3840;59.32098800;18.06423600;2022-12-29T16:09:53;6.00;99.90
7598;DHT22;3840;59.32098800;18.06423600;2022-12-29T16:12:22;6.00;99.90
7598;DHT22;3840;59.32098800;18.06423600;2022-12-29T16:15:00;6.00;99.90
7598;DHT22;3840;59.32098800;18.06423600;2022-12-29T16:17:33;6.00;99.90
7598;DHT22;3840;59.32098800;18.06423600;2022-12-29T16:20:00;6.00;99.90
7598;DHT22;3840;59.32098800;18.06423600;2022-12-29T16:22:31;6.10;99.90